createdAt,value
2022-11-15T00:00:32.438Z,9.13
2022-11-15T00:02:59.314Z,8.88
2022-11-15T00:05:26.309Z,8.75
2022-11-15T00:07:55.913Z,8.95
2022-11-15T00:10:23.250Z,8.02
2022-11-15T00:12:50.054Z,8.13
2022-11-15T00:15:16.950Z,7.88
2022-11-15T00:17:43.849Z,8.05
2022-11-15T00:20:11.106Z,8.30
2022-11-15T00:22:37.928Z,8.75
2022-11-15T00:25:05.222Z,13.23
2022-11-15T00:27:32.014Z,12.80
2022-11-15T00:29:58.895Z,12.35
2022-11-15T00:32:25.735Z,11.07
2022-11-15T00:34:52.543Z,10.65
2022-11-15T00:37:19.432Z,10.48
2022-11-15T00:39:46.248Z,9.32
2022-11-15T00:42:13.066Z,9.93
2022-11-15T00:44:39.882Z,8.40
2022-11-15T00:47:06.738Z,8.48
2022-11-15T00:49:33.562Z,8.23
2022-11-15T00:52:00.459Z,8.02
2022-11-15T00:54:27.234Z,8.48
2022-11-15T00:56:54.091Z,7.97
2022-11-15T00:59:20.916Z,7.45
2022-11-15T01:01:47.724Z,7.35
2022-11-15T01:04:15.222Z,7.78
2022-11-15T01:06:42.264Z,7.15
2022-11-15T01:09:09.083Z,7.13
2022-11-15T01:11:35.907Z,7.47
2022-11-15T01:14:02.757Z,7.40
2022-11-15T01:16:29.570Z,6.15
2022-11-15T01:18:56.391Z,6.55
2022-11-15T01:21:23.214Z,6.70
2022-11-15T01:23:50.079Z,6.53
2022-11-15T01:26:17.514Z,6.50
2022-11-15T01:28:44.398Z,6.10
2022-11-15T01:31:19.022Z,6.40
2022-11-15T01:33:46.547Z,5.72
2022-11-15T01:36:16.453Z,6.32
2022-11-15T01:38:43.510Z,5.80
2022-11-15T01:41:18.593Z,5.90
2022-11-15T01:43:45.517Z,6.10
2022-11-15T01:46:34.885Z,5.90
2022-11-15T01:49:15.460Z,6.47
2022-11-15T01:51:42.403Z,5.55
2022-11-15T01:54:16.214Z,5.70
2022-11-15T01:56:53.314Z,5.70
2022-11-15T01:59:20.968Z,5.57
2022-11-15T02:01:47.830Z,5.90
2022-11-15T02:04:18.142Z,5.28
2022-11-15T02:06:45.594Z,5.70
2022-11-15T02:09:12.832Z,5.80
2022-11-15T02:11:39.709Z,5.20
2022-11-15T02:14:07.384Z,5.32
2022-11-15T02:16:42.884Z,5.07
2022-11-15T02:19:14.755Z,5.28
2022-11-15T02:25:08.978Z,5.50
2022-11-15T02:28:17.289Z,4.85
2022-11-15T02:31:19.974Z,5.43
2022-11-15T02:33:55.976Z,4.85
2022-11-15T02:36:53.706Z,4.63
2022-11-15T02:39:31.008Z,4.93
2022-11-15T02:42:29.846Z,4.78
2022-11-15T02:44:58.275Z,4.50
2022-11-15T02:47:25.847Z,4.63
2022-11-15T02:52:28.614Z,5.30
2022-11-15T02:54:56.752Z,4.90
2022-11-15T02:57:48.996Z,4.78
2022-11-15T03:00:17.725Z,5.13
2022-11-15T03:02:58.654Z,4.15
2022-11-15T03:05:44.310Z,4.70
2022-11-15T03:08:37.786Z,4.50
2022-11-15T03:11:13.280Z,3.75
2022-11-15T03:13:55.269Z,4.00
2022-11-15T03:16:43.422Z,4.30
2022-11-15T03:19:28.709Z,4.50
2022-11-15T03:24:26.409Z,4.00
2022-11-15T03:26:55.273Z,4.50
2022-11-15T03:29:26.715Z,3.70
2022-11-15T03:31:58.179Z,3.95
2022-11-15T03:34:41.317Z,4.18
2022-11-15T03:37:08.605Z,3.75
2022-11-15T03:39:35.551Z,3.97
2022-11-15T03:42:17.113Z,3.83
2022-11-15T03:44:50.078Z,3.92
2022-11-15T03:47:28.483Z,3.88
2022-11-15T03:52:33.703Z,3.80
2022-11-15T03:55:02.225Z,3.72
2022-11-15T03:57:29.237Z,3.88
2022-11-15T03:59:56.072Z,3.78
2022-11-15T04:02:22.942Z,3.58
2022-11-15T04:04:49.757Z,3.80
2022-11-15T04:07:16.648Z,3.85
2022-11-15T04:10:02.408Z,3.60
2022-11-15T04:12:36.972Z,3.75
2022-11-15T04:15:09.597Z,3.25
2022-11-15T04:17:39.107Z,3.38
2022-11-15T04:20:26.471Z,3.53
2022-11-15T04:23:12.668Z,3.50
2022-11-15T04:25:39.720Z,3.55
2022-11-15T04:28:06.528Z,2.95
2022-11-15T04:30:33.386Z,3.13
2022-11-15T04:33:00.291Z,3.70
2022-11-15T04:35:27.150Z,3.10
2022-11-15T04:37:54.337Z,3.05
2022-11-15T04:40:21.204Z,2.92
2022-11-15T04:42:47.994Z,2.78
2022-11-15T04:45:14.863Z,3.10
2022-11-15T04:47:44.010Z,3.17
2022-11-15T04:50:13.730Z,3.35
2022-11-15T04:52:45.148Z,3.28
2022-11-15T04:55:12.019Z,2.70
2022-11-15T04:57:39.467Z,3.10
2022-11-15T05:02:55.364Z,2.63
2022-11-15T05:05:22.275Z,3.05
2022-11-15T05:07:49.130Z,2.72
2022-11-15T05:10:16.082Z,3.13
2022-11-15T05:12:42.939Z,2.65
2022-11-15T05:15:10.417Z,2.63
2022-11-15T05:17:37.523Z,2.90
2022-11-15T05:20:04.697Z,2.60
2022-11-15T05:22:31.563Z,3.13
2022-11-15T05:24:58.399Z,2.95
2022-11-15T05:27:25.304Z,2.90
2022-11-15T05:29:52.148Z,2.70
2022-11-15T05:32:19.257Z,3.03
2022-11-15T05:34:46.723Z,2.78
2022-11-15T05:37:14.854Z,2.58
2022-11-15T05:39:41.721Z,3.03
2022-11-15T05:42:11.828Z,2.47
2022-11-15T05:44:41.574Z,2.30
2022-11-15T05:49:38.269Z,2.13
2022-11-15T05:52:06.952Z,2.50
2022-11-15T05:54:34.635Z,2.47
2022-11-15T05:57:01.663Z,2.47
2022-11-15T05:59:31.645Z,2.22
2022-11-15T06:01:58.755Z,2.60
2022-11-15T06:04:25.897Z,2.30
2022-11-15T06:06:52.788Z,2.30
2022-11-15T06:09:19.629Z,2.42
2022-11-15T06:11:46.519Z,2.60
2022-11-15T06:14:13.343Z,2.55
2022-11-15T06:16:40.157Z,2.22
2022-11-15T06:19:08.388Z,2.10
2022-11-15T06:21:35.225Z,2.20
2022-11-15T06:24:02.386Z,2.35
2022-11-15T06:26:29.314Z,2.03
2022-11-15T06:28:56.154Z,2.30
2022-11-15T06:31:23.020Z,2.08
2022-11-15T06:33:50.641Z,2.45
2022-11-15T06:36:18.334Z,2.15
2022-11-15T06:38:46.068Z,2.22
2022-11-15T06:41:14.006Z,1.90
2022-11-15T06:43:41.464Z,1.85
2022-11-15T06:46:08.776Z,2.22
2022-11-15T06:48:36.097Z,1.98
2022-11-15T06:51:04.150Z,2.00
2022-11-15T06:53:31.779Z,2.08
2022-11-15T06:56:06.253Z,2.10
2022-11-15T06:58:33.181Z,2.10
2022-11-15T07:01:08.936Z,2.15
2022-11-15T07:03:37.086Z,2.25
2022-11-15T07:06:07.565Z,2.00
2022-11-15T07:08:35.697Z,1.90
2022-11-15T07:11:04.760Z,2.20
2022-11-15T07:13:36.693Z,1.95
2022-11-15T07:16:08.220Z,2.00
2022-11-15T07:18:36.588Z,1.90
2022-11-15T07:21:04.790Z,2.03
2022-11-15T07:23:32.061Z,2.20
2022-11-15T07:25:59.746Z,2.10
2022-11-15T07:28:29.870Z,1.80
2022-11-15T07:30:56.940Z,2.10
2022-11-15T07:33:24.000Z,1.80
2022-11-15T07:35:50.872Z,1.95
2022-11-15T07:38:21.623Z,1.90
2022-11-15T07:40:49.783Z,2.10
2022-11-15T07:43:16.597Z,2.00
2022-11-15T07:45:44.790Z,1.88
2022-11-15T07:48:11.951Z,1.48
2022-11-15T07:50:43.170Z,1.85
2022-11-15T07:53:11.359Z,1.77
2022-11-15T07:55:38.650Z,1.90
2022-11-15T07:58:07.132Z,1.70
2022-11-15T08:00:34.694Z,1.55
2022-11-15T08:03:05.976Z,1.75
2022-11-15T08:05:33.609Z,1.67
2022-11-15T08:08:00.576Z,8.63
2022-11-15T08:10:28.485Z,57.42
2022-11-15T08:13:03.498Z,45.20
2022-11-15T08:15:30.840Z,40.03
2022-11-15T08:17:59.456Z,37.58
2022-11-15T08:20:27.433Z,32.22
2022-11-15T08:22:54.295Z,23.98
2022-11-15T08:25:21.163Z,19.98
2022-11-15T08:27:48.013Z,17.42
2022-11-15T08:30:17.083Z,15.02
2022-11-15T08:32:44.617Z,14.25
2022-11-15T08:35:11.489Z,12.90
2022-11-15T08:37:38.754Z,12.13
2022-11-15T08:40:06.554Z,11.02
2022-11-15T08:42:33.480Z,11.20
2022-11-15T08:45:00.525Z,10.93
2022-11-15T08:47:27.523Z,10.50
2022-11-15T08:49:54.395Z,9.52
2022-11-15T08:52:21.250Z,9.85
2022-11-15T08:54:48.200Z,9.13
2022-11-15T08:57:15.276Z,9.05
2022-11-15T08:59:42.128Z,8.73
2022-11-15T09:02:13.720Z,8.63
2022-11-15T09:04:42.570Z,8.50
2022-11-15T09:07:10.824Z,7.77
2022-11-15T09:09:37.696Z,7.90
2022-11-15T09:12:05.531Z,8.35
2022-11-15T09:14:32.811Z,25.02
2022-11-15T09:16:59.657Z,55.75
2022-11-15T09:19:26.562Z,49.08
2022-11-15T09:21:53.589Z,38.30
2022-11-15T09:24:20.464Z,31.90
2022-11-15T09:26:47.329Z,27.77
2022-11-15T09:29:14.216Z,24.20
2022-11-15T09:31:41.035Z,21.52
2022-11-15T09:34:07.896Z,20.15
2022-11-15T09:36:34.763Z,18.95
2022-11-15T09:39:01.662Z,17.50
2022-11-15T09:42:03.338Z,16.98
2022-11-15T09:44:46.238Z,16.27
2022-11-15T09:47:34.785Z,15.25
2022-11-15T09:50:08.190Z,15.02
2022-11-15T09:52:36.406Z,13.93
2022-11-15T09:55:03.297Z,13.68
2022-11-15T09:57:34.523Z,12.68
2022-11-15T10:03:26.506Z,11.55
2022-11-15T10:05:57.792Z,10.98
2022-11-15T10:08:47.962Z,10.80
2022-11-15T10:11:36.604Z,10.80
2022-11-15T10:14:14.492Z,10.45
2022-11-15T10:16:53.735Z,9.82
2022-11-15T10:19:43.624Z,9.43
2022-11-15T10:22:16.308Z,8.85
2022-11-15T10:24:44.864Z,10.02
2022-11-15T10:27:14.489Z,32.22
2022-11-15T10:29:49.586Z,27.10
2022-11-15T10:32:21.599Z,23.17
2022-11-15T10:34:50.264Z,19.15
2022-11-15T10:37:30.204Z,17.02
2022-11-15T10:40:13.998Z,15.35
2022-11-15T10:42:40.814Z,13.93
2022-11-15T10:45:28.762Z,13.52
2022-11-15T10:48:17.391Z,12.27
2022-11-15T10:50:48.014Z,11.48
2022-11-15T10:53:20.831Z,10.75
2022-11-15T10:58:42.580Z,11.07
2022-11-15T11:01:21.452Z,10.30
2022-11-15T11:04:03.339Z,10.35
2022-11-15T11:06:30.713Z,39.13
2022-11-15T11:09:03.009Z,52.00
2022-11-15T11:11:51.984Z,43.55
2022-11-15T11:14:28.206Z,36.55
2022-11-15T11:17:00.716Z,31.90
2022-11-15T11:20:05.745Z,27.27
2022-11-15T11:22:32.840Z,26.77
2022-11-15T11:25:20.720Z,24.60
2022-11-15T11:28:32.705Z,22.10
2022-11-15T11:31:14.557Z,20.13
2022-11-15T11:33:50.102Z,19.08
2022-11-15T11:36:41.893Z,18.00
2022-11-15T11:39:35.069Z,16.70
2022-11-15T11:43:00.458Z,16.48
2022-11-15T11:45:53.360Z,15.65
2022-11-15T11:48:25.710Z,14.48
2022-11-15T11:50:53.793Z,14.27
2022-11-15T11:53:47.815Z,13.50
2022-11-15T11:56:30.815Z,55.78
2022-11-15T11:59:05.493Z,54.65
2022-11-15T12:01:44.632Z,45.13
2022-11-15T12:04:36.290Z,36.90
2022-11-15T12:07:18.401Z,30.35
2022-11-15T12:09:59.981Z,29.25
2022-11-15T12:13:07.684Z,26.48
2022-11-15T12:15:40.726Z,23.40
2022-11-15T12:18:12.761Z,23.95
2022-11-15T12:20:43.848Z,22.25
2022-11-15T12:23:21.674Z,20.80
2022-11-15T12:26:13.692Z,19.48
2022-11-15T12:29:04.544Z,17.88
2022-11-15T12:34:07.522Z,16.77
2022-11-15T12:36:40.704Z,16.20
2022-11-15T12:39:10.043Z,15.02
2022-11-15T12:41:45.674Z,15.45
2022-11-15T12:44:14.308Z,14.40
2022-11-15T12:46:41.540Z,14.73
2022-11-15T12:49:26.747Z,13.90
2022-11-15T12:51:59.463Z,14.15
2022-11-15T12:54:27.565Z,13.73
2022-11-15T12:57:09.374Z,13.02
2022-11-15T13:00:03.488Z,13.60
2022-11-15T13:02:40.799Z,12.65
2022-11-15T13:05:36.885Z,11.85
2022-11-15T13:08:03.801Z,11.90
2022-11-15T13:10:34.664Z,11.65
2022-11-15T13:13:05.523Z,11.98
2022-11-15T13:15:42.868Z,9.65
2022-11-15T13:18:28.525Z,11.35
2022-11-15T13:21:00.926Z,13.93
2022-11-15T13:23:29.212Z,11.68
2022-11-15T13:26:17.675Z,63.42
2022-11-15T13:28:50.589Z,54.75
2022-11-15T13:31:27.574Z,47.35
2022-11-15T13:34:00.876Z,41.72
2022-11-15T13:36:30.973Z,35.97
2022-11-15T13:39:00.610Z,29.48
2022-11-15T13:41:32.817Z,27.15
2022-11-15T13:44:01.174Z,24.70
2022-11-15T13:46:31.238Z,23.33
2022-11-15T13:49:03.971Z,22.00
2022-11-15T13:51:45.153Z,21.80
2022-11-15T13:54:29.037Z,20.85
2022-11-15T13:57:03.495Z,19.15
2022-11-15T13:59:38.465Z,18.75
2022-11-15T14:02:14.674Z,17.75
2022-11-15T14:04:51.087Z,57.47
2022-11-15T14:07:26.582Z,75.50
2022-11-15T14:09:53.558Z,58.03
2022-11-15T14:12:25.322Z,45.80
2022-11-15T14:14:53.043Z,40.42
2022-11-15T14:17:45.731Z,34.55
2022-11-15T14:20:36.543Z,31.50
2022-11-15T14:23:20.577Z,29.05
2022-11-15T14:26:00.512Z,29.17
2022-11-15T14:28:27.429Z,28.30
2022-11-15T14:30:56.747Z,26.40
2022-11-15T14:33:25.472Z,25.77
2022-11-15T14:35:53.489Z,25.73
2022-11-15T14:38:20.631Z,24.13
2022-11-15T14:40:47.564Z,22.98
2022-11-15T14:43:14.789Z,23.17
2022-11-15T14:45:42.057Z,21.80
2022-11-15T14:48:09.346Z,20.88
2022-11-15T14:50:36.791Z,20.48
2022-11-15T14:53:04.391Z,20.05
2022-11-15T14:55:36.985Z,19.05
2022-11-15T14:58:05.062Z,18.63
2022-11-15T15:00:35.268Z,19.25
2022-11-15T15:03:02.818Z,18.77
2022-11-15T15:05:35.314Z,17.95
2022-11-15T15:08:02.417Z,16.88
2022-11-15T15:10:40.009Z,16.65
2022-11-15T15:13:22.377Z,16.88
2022-11-15T15:15:50.424Z,15.73
2022-11-15T15:18:18.220Z,15.45
2022-11-15T15:20:46.875Z,16.38
2022-11-15T15:23:18.781Z,15.68
2022-11-15T15:25:47.075Z,16.98
2022-11-15T15:28:14.391Z,15.35
2022-11-15T15:30:41.578Z,14.55
2022-11-15T15:33:08.472Z,14.07
2022-11-15T15:35:36.127Z,13.07
2022-11-15T15:38:03.343Z,13.68
2022-11-15T15:40:32.511Z,13.60
2022-11-15T15:42:59.941Z,12.68
2022-11-15T15:45:28.547Z,12.60
2022-11-15T15:47:55.490Z,12.45
2022-11-15T15:50:33.067Z,12.30
2022-11-15T15:53:03.167Z,12.32
2022-11-15T15:55:30.694Z,11.68
2022-11-15T15:57:57.652Z,12.45
2022-11-15T16:00:25.865Z,11.93
2022-11-15T16:02:53.664Z,11.68
2022-11-15T16:05:20.652Z,11.15
2022-11-15T16:07:48.566Z,10.60
2022-11-15T16:10:20.287Z,11.05
2022-11-15T16:12:48.040Z,10.32
2022-11-15T16:15:15.073Z,9.82
2022-11-15T16:17:56.489Z,10.20
2022-11-15T16:20:45.368Z,9.90
2022-11-15T16:23:14.993Z,10.43
2022-11-15T16:25:50.925Z,9.55
2022-11-15T16:28:20.429Z,9.95
2022-11-15T16:30:49.994Z,8.75
2022-11-15T16:33:21.279Z,9.00
2022-11-15T16:35:48.924Z,10.10
2022-11-15T16:38:16.610Z,9.68
2022-11-15T16:40:43.679Z,8.98
2022-11-15T16:43:11.185Z,9.05
2022-11-15T16:45:38.197Z,9.35
2022-11-15T16:48:05.097Z,9.18
2022-11-15T16:50:39.849Z,8.60
2022-11-15T16:53:07.033Z,8.82
2022-11-15T16:55:33.862Z,8.68
2022-11-15T16:58:01.925Z,8.23
2022-11-15T17:00:28.894Z,8.23
2022-11-15T17:02:56.283Z,7.72
2022-11-15T17:05:24.459Z,8.13
2022-11-15T17:07:54.277Z,8.00
2022-11-15T17:12:49.174Z,7.88
2022-11-15T17:15:16.500Z,7.57
2022-11-15T17:17:43.602Z,7.28
2022-11-15T17:20:18.355Z,7.63
2022-11-15T17:22:47.213Z,7.25
2022-11-15T17:25:14.207Z,6.83
2022-11-15T17:27:41.075Z,7.07
2022-11-15T17:30:08.696Z,7.43
2022-11-15T17:32:38.719Z,7.50
2022-11-15T17:35:15.040Z,6.40
2022-11-15T17:37:42.511Z,6.32
2022-11-15T17:40:09.963Z,6.57
2022-11-15T17:42:36.880Z,6.43
2022-11-15T17:45:09.320Z,6.13
2022-11-15T17:47:37.324Z,6.15
2022-11-15T17:50:04.840Z,6.60
2022-11-15T17:52:31.702Z,6.40
2022-11-15T17:54:58.521Z,6.10
2022-11-15T17:57:25.396Z,5.70
2022-11-15T17:59:52.496Z,6.03
2022-11-15T18:02:19.560Z,6.70
2022-11-15T18:04:46.460Z,5.80
2022-11-15T18:07:14.195Z,5.85
2022-11-15T18:09:44.071Z,6.63
2022-11-15T18:12:11.936Z,6.00
2022-11-15T18:14:39.167Z,8.07
2022-11-15T18:17:06.112Z,7.50
2022-11-15T18:19:33.012Z,11.30
2022-11-15T18:22:00.950Z,12.50
2022-11-15T18:24:30.151Z,13.10
2022-11-15T18:26:57.983Z,12.82
2022-11-15T18:29:25.145Z,12.48
2022-11-15T18:31:55.743Z,12.60
2022-11-15T18:34:28.806Z,13.23
2022-11-15T18:36:55.797Z,12.82
2022-11-15T18:39:22.678Z,12.40
2022-11-15T18:41:49.553Z,13.13
2022-11-15T18:44:17.182Z,12.85
2022-11-15T18:46:47.317Z,12.20
2022-11-15T18:49:16.572Z,11.15
2022-11-15T18:51:43.859Z,11.13
2022-11-15T18:54:12.101Z,12.15
2022-11-15T18:56:39.166Z,11.30
2022-11-15T18:59:06.525Z,12.07
2022-11-15T19:01:38.296Z,39.38
2022-11-15T19:04:25.458Z,33.55
2022-11-15T19:06:53.508Z,28.15
2022-11-15T19:09:20.700Z,28.20
2022-11-15T19:11:48.971Z,26.67
2022-11-15T19:14:17.489Z,26.45
2022-11-15T19:16:52.453Z,24.23
2022-11-15T19:19:24.943Z,24.52
2022-11-15T19:21:52.434Z,23.38
2022-11-15T19:24:19.575Z,22.73
2022-11-15T19:26:47.058Z,19.25
2022-11-15T19:29:14.212Z,20.27
2022-11-15T19:31:42.057Z,19.35
2022-11-15T19:34:09.371Z,18.02
2022-11-15T19:36:43.986Z,17.30
2022-11-15T19:39:13.221Z,16.17
2022-11-15T19:41:42.584Z,16.33
2022-11-15T19:44:10.635Z,14.70
2022-11-15T19:46:38.381Z,14.93
2022-11-15T19:49:07.945Z,14.85
2022-11-15T19:51:34.757Z,13.93
2022-11-15T19:54:06.433Z,12.73
2022-11-15T19:56:34.796Z,13.57
2022-11-15T19:59:02.564Z,11.90
2022-11-15T20:01:33.071Z,12.00
2022-11-15T20:04:00.770Z,12.20
2022-11-15T20:06:33.237Z,11.23
2022-11-15T20:09:00.470Z,11.15
2022-11-15T20:11:27.629Z,10.85
2022-11-15T20:13:58.867Z,9.93
2022-11-15T20:16:25.979Z,10.13
2022-11-15T20:18:53.393Z,9.40
2022-11-15T20:21:20.763Z,10.55
2022-11-15T20:23:53.376Z,9.25
2022-11-15T20:26:20.837Z,9.10
2022-11-15T20:28:48.221Z,8.70
2022-11-15T20:31:15.790Z,8.90
2022-11-15T20:33:42.630Z,9.30
2022-11-15T20:36:14.439Z,8.55
2022-11-15T20:38:41.482Z,8.95
2022-11-15T20:41:10.737Z,7.72
2022-11-15T20:43:37.603Z,8.43
2022-11-15T20:46:04.988Z,7.82
2022-11-15T20:48:32.420Z,7.93
2022-11-15T20:51:12.157Z,7.38
2022-11-15T20:53:39.122Z,7.35
2022-11-15T20:56:11.469Z,7.07
2022-11-15T20:58:38.532Z,7.28
2022-11-15T21:01:07.082Z,7.47
2022-11-15T21:03:34.655Z,6.90
2022-11-15T21:06:01.786Z,6.63
2022-11-15T21:08:28.766Z,7.30
2022-11-15T21:11:14.183Z,6.18
2022-11-15T21:13:41.024Z,6.97
2022-11-15T21:16:08.347Z,6.47
2022-11-15T21:18:35.592Z,6.60
2022-11-15T21:21:07.488Z,6.50
2022-11-15T21:23:34.357Z,5.80
2022-11-15T21:26:01.220Z,6.28
2022-11-15T21:28:28.033Z,5.78
2022-11-15T21:30:59.465Z,6.00
2022-11-15T21:33:29.959Z,5.55
2022-11-15T21:35:57.971Z,5.90
2022-11-15T21:38:25.145Z,5.82
2022-11-15T21:40:53.042Z,5.55
2022-11-15T21:43:20.335Z,5.63
2022-11-15T21:45:57.603Z,5.72
2022-11-15T21:48:24.646Z,28.08
2022-11-15T21:50:59.275Z,27.90
2022-11-15T21:53:26.808Z,24.05
2022-11-15T21:55:53.739Z,22.15
2022-11-15T21:58:21.623Z,20.67
2022-11-15T22:01:07.438Z,18.27
2022-11-15T22:03:34.508Z,17.58
2022-11-15T22:06:01.409Z,16.65
2022-11-15T22:08:28.507Z,14.00
2022-11-15T22:10:56.835Z,13.90
2022-11-15T22:13:24.723Z,12.38
2022-11-15T22:15:53.514Z,12.07
2022-11-15T22:18:26.170Z,11.50
2022-11-15T22:21:00.861Z,11.10
2022-11-15T22:23:29.258Z,10.68
2022-11-15T22:25:56.203Z,9.55
2022-11-15T22:28:23.566Z,9.45
2022-11-15T22:30:52.572Z,8.70
2022-11-15T22:33:21.882Z,8.18
2022-11-15T22:35:48.997Z,8.70
2022-11-15T22:38:16.069Z,8.32
2022-11-15T22:40:43.708Z,7.70
2022-11-15T22:43:13.045Z,8.13
2022-11-15T22:45:50.569Z,7.10
2022-11-15T22:48:18.025Z,7.60
2022-11-15T22:50:45.393Z,7.18
2022-11-15T22:53:12.389Z,7.85
2022-11-15T22:55:40.488Z,21.40
2022-11-15T22:58:08.813Z,19.88
2022-11-15T23:00:36.160Z,16.05
2022-11-15T23:03:03.605Z,13.18
2022-11-15T23:05:30.563Z,12.20
2022-11-15T23:07:57.965Z,11.00
2022-11-15T23:10:43.568Z,10.85
2022-11-15T23:13:16.226Z,9.95
2022-11-15T23:16:04.038Z,9.27
2022-11-15T23:18:34.596Z,8.35
2022-11-15T23:21:12.264Z,9.13
2022-11-15T23:23:39.733Z,8.15
2022-11-15T23:26:07.086Z,8.05
2022-11-15T23:28:35.083Z,7.30
2022-11-15T23:31:22.713Z,13.68
2022-11-15T23:33:58.675Z,15.90
2022-11-15T23:36:29.371Z,13.50
2022-11-15T23:38:56.681Z,11.98
2022-11-15T23:41:24.073Z,10.82
2022-11-15T23:43:51.902Z,9.48
2022-11-15T23:46:19.183Z,9.98
2022-11-15T23:48:45.992Z,9.23
2022-11-15T23:51:12.852Z,8.93
2022-11-15T23:53:39.728Z,8.55
2022-11-15T23:56:10.160Z,8.43
2022-11-15T23:58:37.279Z,8.38
